sensor_id;sensor_type;location;lat;lon;timestamp;P1;durP1;ratioP1;P2;durP2;ratioP2
14847;SDS011;7516;43.570;1.448;2023-06-19T00:01:35;10.27;;;6.60;;
14847;SDS011;7516;43.570;1.448;2023-06-19T00:04:02;8.38;;;6.00;;
14847;SDS011;7516;43.570;1.448;2023-06-19T00:06:29;10.85;;;6.20;;
14847;SDS011;7516;43.570;1.448;2023-06-19T00:08:56;8.73;;;5.75;;
14847;SDS011;7516;43.570;1.448;2023-06-19T00:11:24;8.10;;;5.50;;
14847;SDS011;7516;43.570;1.448;2023-06-19T00:13:51;7.68;;;5.95;;
14847;SDS011;7516;43.570;1.448;2023-06-19T00:16:20;7.45;;;6.05;;
14847;SDS011;7516;43.570;1.448;2023-06-19T00:18:50;8.43;;;5.82;;
14847;SDS011;7516;43.570;1.448;2023-06-19T00:21:20;9.43;;;5.90;;
14847;SDS011;7516;43.570;1.448;2023-06-19T00:23:48;7.95;;;6.10;;
14847;SDS011;7516;43.570;1.448;2023-06-19T00:26:16;9.45;;;6.28;;
14847;SDS011;7516;43.570;1.448;2023-06-19T00:28:43;8.40;;;5.60;;
14847;SDS011;7516;43.570;1.448;2023-06-19T00:31:10;8.43;;;5.85;;
14847;SDS011;7516;43.570;1.448;2023-06-19T00:33:40;9.38;;;5.85;;
14847;SDS011;7516;43.570;1.448;2023-06-19T00:36:08;9.07;;;6.15;;
14847;SDS011;7516;43.570;1.448;2023-06-19T00:38:36;11.02;;;6.20;;
14847;SDS011;7516;43.570;1.448;2023-06-19T00:41:03;11.40;;;6.55;;
14847;SDS011;7516;43.570;1.448;2023-06-19T00:43:30;11.45;;;5.63;;
14847;SDS011;7516;43.570;1.448;2023-06-19T00:45:58;9.80;;;6.05;;
14847;SDS011;7516;43.570;1.448;2023-06-19T00:48:25;10.55;;;6.18;;
14847;SDS011;7516;43.570;1.448;2023-06-19T00:50:55;10.35;;;5.57;;
14847;SDS011;7516;43.570;1.448;2023-06-19T00:53:23;8.82;;;6.25;;
14847;SDS011;7516;43.570;1.448;2023-06-19T00:55:50;8.93;;;6.07;;
14847;SDS011;7516;43.570;1.448;2023-06-19T00:58:18;9.90;;;5.90;;
14847;SDS011;7516;43.570;1.448;2023-06-19T01:00:46;9.02;;;5.75;;
14847;SDS011;7516;43.570;1.448;2023-06-19T01:03:13;7.45;;;5.70;;
14847;SDS011;7516;43.570;1.448;2023-06-19T01:05:41;8.02;;;5.65;;
14847;SDS011;7516;43.570;1.448;2023-06-19T01:08:11;7.93;;;5.75;;
14847;SDS011;7516;43.570;1.448;2023-06-19T01:10:40;9.40;;;5.88;;
14847;SDS011;7516;43.570;1.448;2023-06-19T01:13:10;7.78;;;5.57;;
14847;SDS011;7516;43.570;1.448;2023-06-19T01:15:39;9.05;;;5.75;;
14847;SDS011;7516;43.570;1.448;2023-06-19T01:18:06;8.90;;;6.00;;
14847;SDS011;7516;43.570;1.448;2023-06-19T01:20:36;7.57;;;5.72;;
14847;SDS011;7516;43.570;1.448;2023-06-19T01:23:09;10.15;;;6.10;;
14847;SDS011;7516;43.570;1.448;2023-06-19T01:25:36;8.93;;;5.40;;
14847;SDS011;7516;43.570;1.448;2023-06-19T01:28:06;6.38;;;5.63;;
14847;SDS011;7516;43.570;1.448;2023-06-19T01:30:35;9.18;;;5.38;;
14847;SDS011;7516;43.570;1.448;2023-06-19T01:33:03;7.05;;;5.55;;
14847;SDS011;7516;43.570;1.448;2023-06-19T01:35:33;7.88;;;5.85;;
14847;SDS011;7516;43.570;1.448;2023-06-19T01:38:01;9.27;;;5.53;;
14847;SDS011;7516;43.570;1.448;2023-06-19T01:40:30;7.32;;;5.22;;
14847;SDS011;7516;43.570;1.448;2023-06-19T01:42:59;9.23;;;5.45;;
14847;SDS011;7516;43.570;1.448;2023-06-19T01:45:27;10.93;;;4.97;;
14847;SDS011;7516;43.570;1.448;2023-06-19T01:47:55;9.07;;;5.60;;
14847;SDS011;7516;43.570;1.448;2023-06-19T01:50:22;9.88;;;5.25;;
14847;SDS011;7516;43.570;1.448;2023-06-19T01:52:50;9.25;;;5.20;;
14847;SDS011;7516;43.570;1.448;2023-06-19T01:55:17;10.63;;;5.60;;
14847;SDS011;7516;43.570;1.448;2023-06-19T01:57:46;8.57;;;5.15;;
14847;SDS011;7516;43.570;1.448;2023-06-19T02:00:13;8.93;;;5.20;;
14847;SDS011;7516;43.570;1.448;2023-06-19T02:02:40;8.85;;;5.32;;
14847;SDS011;7516;43.570;1.448;2023-06-19T02:05:07;6.03;;;4.97;;
14847;SDS011;7516;43.570;1.448;2023-06-19T02:07:35;7.95;;;5.22;;
14847;SDS011;7516;43.570;1.448;2023-06-19T02:10:02;9.10;;;5.70;;
14847;SDS011;7516;43.570;1.448;2023-06-19T02:12:30;10.20;;;5.43;;
14847;SDS011;7516;43.570;1.448;2023-06-19T02:14:59;5.30;;;4.53;;
14847;SDS011;7516;43.570;1.448;2023-06-19T02:17:26;7.78;;;5.45;;
14847;SDS011;7516;43.570;1.448;2023-06-19T02:19:53;6.90;;;5.50;;
14847;SDS011;7516;43.570;1.448;2023-06-19T02:22:20;8.05;;;5.70;;
14847;SDS011;7516;43.570;1.448;2023-06-19T02:24:48;10.85;;;5.65;;
14847;SDS011;7516;43.570;1.448;2023-06-19T02:27:15;8.63;;;5.43;;
14847;SDS011;7516;43.570;1.448;2023-06-19T02:29:42;6.43;;;5.00;;
14847;SDS011;7516;43.570;1.448;2023-06-19T02:32:11;8.27;;;5.45;;
14847;SDS011;7516;43.570;1.448;2023-06-19T02:34:38;7.97;;;5.32;;
14847;SDS011;7516;43.570;1.448;2023-06-19T02:37:05;7.25;;;5.32;;
14847;SDS011;7516;43.570;1.448;2023-06-19T02:39:33;7.72;;;5.10;;
14847;SDS011;7516;43.570;1.448;2023-06-19T02:42:00;6.63;;;5.03;;
14847;SDS011;7516;43.570;1.448;2023-06-19T02:44:27;8.82;;;5.43;;
14847;SDS011;7516;43.570;1.448;2023-06-19T02:46:55;8.70;;;5.18;;
14847;SDS011;7516;43.570;1.448;2023-06-19T02:49:23;6.25;;;5.20;;
14847;SDS011;7516;43.570;1.448;2023-06-19T02:51:50;8.60;;;5.25;;
14847;SDS011;7516;43.570;1.448;2023-06-19T02:54:18;6.57;;;5.28;;
14847;SDS011;7516;43.570;1.448;2023-06-19T02:56:45;7.25;;;5.05;;
14847;SDS011;7516;43.570;1.448;2023-06-19T02:59:12;6.32;;;5.43;;
14847;SDS011;7516;43.570;1.448;2023-06-19T03:01:40;9.45;;;5.30;;
14847;SDS011;7516;43.570;1.448;2023-06-19T03:04:07;6.13;;;5.50;;
14847;SDS011;7516;43.570;1.448;2023-06-19T03:06:35;7.75;;;5.57;;
14847;SDS011;7516;43.570;1.448;2023-06-19T03:09:04;7.18;;;5.40;;
14847;SDS011;7516;43.570;1.448;2023-06-19T03:11:37;8.45;;;5.75;;
14847;SDS011;7516;43.570;1.448;2023-06-19T03:14:04;8.43;;;5.55;;
14847;SDS011;7516;43.570;1.448;2023-06-19T03:16:32;8.32;;;5.05;;
14847;SDS011;7516;43.570;1.448;2023-06-19T03:19:00;10.85;;;5.65;;
14847;SDS011;7516;43.570;1.448;2023-06-19T03:21:27;6.75;;;5.25;;
14847;SDS011;7516;43.570;1.448;2023-06-19T03:23:56;8.93;;;5.38;;
14847;SDS011;7516;43.570;1.448;2023-06-19T03:26:23;7.32;;;5.35;;
14847;SDS011;7516;43.570;1.448;2023-06-19T03:28:51;7.50;;;5.57;;
14847;SDS011;7516;43.570;1.448;2023-06-19T03:31:18;9.57;;;5.47;;
14847;SDS011;7516;43.570;1.448;2023-06-19T03:33:45;10.15;;;6.22;;
14847;SDS011;7516;43.570;1.448;2023-06-19T03:36:12;6.78;;;5.18;;
14847;SDS011;7516;43.570;1.448;2023-06-19T03:38:40;8.63;;;5.50;;
14847;SDS011;7516;43.570;1.448;2023-06-19T03:41:08;7.00;;;5.70;;
14847;SDS011;7516;43.570;1.448;2023-06-19T03:43:35;7.40;;;5.28;;
14847;SDS011;7516;43.570;1.448;2023-06-19T03:46:03;6.95;;;5.45;;
14847;SDS011;7516;43.570;1.448;2023-06-19T03:48:30;8.45;;;5.38;;
14847;SDS011;7516;43.570;1.448;2023-06-19T03:50:58;7.45;;;5.85;;
14847;SDS011;7516;43.570;1.448;2023-06-19T03:53:26;6.93;;;5.30;;
14847;SDS011;7516;43.570;1.448;2023-06-19T03:55:54;8.48;;;5.93;;
14847;SDS011;7516;43.570;1.448;2023-06-19T03:58:22;7.93;;;5.53;;
14847;SDS011;7516;43.570;1.448;2023-06-19T04:00:50;11.68;;;5.55;;
14847;SDS011;7516;43.570;1.448;2023-06-19T04:03:18;10.60;;;5.72;;
14847;SDS011;7516;43.570;1.448;2023-06-19T04:05:45;10.82;;;5.93;;
14847;SDS011;7516;43.570;1.448;2023-06-19T04:08:12;10.40;;;6.03;;
14847;SDS011;7516;43.570;1.448;2023-06-19T04:10:39;7.97;;;5.72;;
14847;SDS011;7516;43.570;1.448;2023-06-19T04:13:06;5.97;;;5.38;;
14847;SDS011;7516;43.570;1.448;2023-06-19T04:15:35;8.95;;;6.00;;
14847;SDS011;7516;43.570;1.448;2023-06-19T04:18:02;10.40;;;5.90;;
14847;SDS011;7516;43.570;1.448;2023-06-19T04:20:30;7.93;;;5.60;;
14847;SDS011;7516;43.570;1.448;2023-06-19T04:22:58;7.05;;;5.68;;
14847;SDS011;7516;43.570;1.448;2023-06-19T04:25:26;9.05;;;5.80;;
14847;SDS011;7516;43.570;1.448;2023-06-19T04:27:53;9.57;;;5.70;;
14847;SDS011;7516;43.570;1.448;2023-06-19T04:30:20;8.85;;;5.63;;
14847;SDS011;7516;43.570;1.448;2023-06-19T04:32:49;8.85;;;5.45;;
14847;SDS011;7516;43.570;1.448;2023-06-19T04:35:18;7.32;;;5.60;;
14847;SDS011;7516;43.570;1.448;2023-06-19T04:37:45;9.65;;;5.68;;
14847;SDS011;7516;43.570;1.448;2023-06-19T04:40:13;6.65;;;5.60;;
14847;SDS011;7516;43.570;1.448;2023-06-19T04:42:43;9.52;;;5.50;;
14847;SDS011;7516;43.570;1.448;2023-06-19T04:45:10;7.43;;;5.68;;
14847;SDS011;7516;43.570;1.448;2023-06-19T04:47:37;9.68;;;6.25;;
14847;SDS011;7516;43.570;1.448;2023-06-19T04:50:07;9.52;;;6.35;;
14847;SDS011;7516;43.570;1.448;2023-06-19T04:52:34;6.50;;;5.88;;
14847;SDS011;7516;43.570;1.448;2023-06-19T04:55:02;9.45;;;5.88;;
14847;SDS011;7516;43.570;1.448;2023-06-19T04:57:30;9.32;;;6.00;;
14847;SDS011;7516;43.570;1.448;2023-06-19T04:59:57;8.50;;;5.75;;
14847;SDS011;7516;43.570;1.448;2023-06-19T05:02:24;8.43;;;5.90;;
14847;SDS011;7516;43.570;1.448;2023-06-19T05:04:51;7.90;;;5.70;;
14847;SDS011;7516;43.570;1.448;2023-06-19T05:07:20;8.82;;;6.05;;
14847;SDS011;7516;43.570;1.448;2023-06-19T05:09:47;7.55;;;5.55;;
14847;SDS011;7516;43.570;1.448;2023-06-19T05:12:15;8.50;;;5.97;;
14847;SDS011;7516;43.570;1.448;2023-06-19T05:14:42;7.28;;;5.78;;
14847;SDS011;7516;43.570;1.448;2023-06-19T05:17:09;8.13;;;6.43;;
14847;SDS011;7516;43.570;1.448;2023-06-19T05:19:36;9.10;;;5.90;;
14847;SDS011;7516;43.570;1.448;2023-06-19T05:22:04;8.40;;;6.28;;
14847;SDS011;7516;43.570;1.448;2023-06-19T05:24:33;6.40;;;5.80;;
14847;SDS011;7516;43.570;1.448;2023-06-19T05:27:00;9.27;;;5.03;;
14847;SDS011;7516;43.570;1.448;2023-06-19T05:29:27;5.65;;;5.10;;
14847;SDS011;7516;43.570;1.448;2023-06-19T05:31:56;7.38;;;5.53;;
14847;SDS011;7516;43.570;1.448;2023-06-19T05:34:23;8.88;;;5.78;;
14847;SDS011;7516;43.570;1.448;2023-06-19T05:36:50;10.15;;;5.75;;
14847;SDS011;7516;43.570;1.448;2023-06-19T05:39:17;8.10;;;5.32;;
14847;SDS011;7516;43.570;1.448;2023-06-19T05:41:46;7.57;;;5.22;;
14847;SDS011;7516;43.570;1.448;2023-06-19T05:44:13;6.25;;;5.13;;
14847;SDS011;7516;43.570;1.448;2023-06-19T05:46:41;9.75;;;5.57;;
14847;SDS011;7516;43.570;1.448;2023-06-19T05:49:09;6.63;;;4.80;;
14847;SDS011;7516;43.570;1.448;2023-06-19T05:51:36;8.52;;;5.13;;
14847;SDS011;7516;43.570;1.448;2023-06-19T05:54:03;6.75;;;5.20;;
14847;SDS011;7516;43.570;1.448;2023-06-19T05:56:31;5.65;;;4.95;;
14847;SDS011;7516;43.570;1.448;2023-06-19T05:58:59;7.25;;;4.72;;
14847;SDS011;7516;43.570;1.448;2023-06-19T06:01:27;7.70;;;5.50;;
14847;SDS011;7516;43.570;1.448;2023-06-19T06:03:54;7.65;;;5.47;;
14847;SDS011;7516;43.570;1.448;2023-06-19T06:06:22;6.70;;;5.30;;
14847;SDS011;7516;43.570;1.448;2023-06-19T06:08:50;9.18;;;5.85;;
14847;SDS011;7516;43.570;1.448;2023-06-19T06:11:18;8.05;;;5.82;;
14847;SDS011;7516;43.570;1.448;2023-06-19T06:13:45;9.25;;;5.90;;
14847;SDS011;7516;43.570;1.448;2023-06-19T06:16:13;7.43;;;5.40;;
14847;SDS011;7516;43.570;1.448;2023-06-19T06:18:41;7.55;;;5.70;;
14847;SDS011;7516;43.570;1.448;2023-06-19T06:21:08;7.60;;;5.82;;
14847;SDS011;7516;43.570;1.448;2023-06-19T06:23:37;8.55;;;5.95;;
14847;SDS011;7516;43.570;1.448;2023-06-19T06:26:05;6.47;;;5.88;;
14847;SDS011;7516;43.570;1.448;2023-06-19T06:28:32;7.07;;;6.20;;
14847;SDS011;7516;43.570;1.448;2023-06-19T06:30:59;8.00;;;5.70;;
14847;SDS011;7516;43.570;1.448;2023-06-19T06:33:28;6.80;;;6.07;;
14847;SDS011;7516;43.570;1.448;2023-06-19T06:35:55;8.40;;;6.32;;
14847;SDS011;7516;43.570;1.448;2023-06-19T06:38:22;10.05;;;6.40;;
14847;SDS011;7516;43.570;1.448;2023-06-19T06:40:50;7.55;;;5.93;;
14847;SDS011;7516;43.570;1.448;2023-06-19T06:43:17;7.95;;;6.35;;
14847;SDS011;7516;43.570;1.448;2023-06-19T06:45:44;8.45;;;5.90;;
14847;SDS011;7516;43.570;1.448;2023-06-19T06:48:11;8.02;;;5.88;;
14847;SDS011;7516;43.570;1.448;2023-06-19T06:50:40;7.63;;;5.78;;
14847;SDS011;7516;43.570;1.448;2023-06-19T06:53:07;8.93;;;6.28;;
14847;SDS011;7516;43.570;1.448;2023-06-19T06:55:34;7.88;;;6.03;;
14847;SDS011;7516;43.570;1.448;2023-06-19T06:58:02;7.63;;;6.13;;
14847;SDS011;7516;43.570;1.448;2023-06-19T07:00:29;8.05;;;6.45;;
14847;SDS011;7516;43.570;1.448;2023-06-19T07:02:57;10.77;;;6.00;;
14847;SDS011;7516;43.570;1.448;2023-06-19T07:05:24;8.50;;;6.78;;
14847;SDS011;7516;43.570;1.448;2023-06-19T07:07:53;10.40;;;7.20;;
14847;SDS011;7516;43.570;1.448;2023-06-19T07:10:20;11.98;;;6.43;;
14847;SDS011;7516;43.570;1.448;2023-06-19T07:12:47;9.80;;;6.53;;
14847;SDS011;7516;43.570;1.448;2023-06-19T07:15:16;7.93;;;6.60;;
14847;SDS011;7516;43.570;1.448;2023-06-19T07:17:44;7.72;;;6.60;;
14847;SDS011;7516;43.570;1.448;2023-06-19T07:20:11;7.70;;;6.25;;
14847;SDS011;7516;43.570;1.448;2023-06-19T07:22:38;8.43;;;6.47;;
14847;SDS011;7516;43.570;1.448;2023-06-19T07:25:09;8.68;;;6.60;;
14847;SDS011;7516;43.570;1.448;2023-06-19T07:27:36;8.70;;;6.57;;
14847;SDS011;7516;43.570;1.448;2023-06-19T07:30:04;8.40;;;6.35;;
14847;SDS011;7516;43.570;1.448;2023-06-19T07:32:32;8.18;;;6.53;;
14847;SDS011;7516;43.570;1.448;2023-06-19T07:34:59;9.10;;;6.82;;
14847;SDS011;7516;43.570;1.448;2023-06-19T07:37:26;8.23;;;6.88;;
14847;SDS011;7516;43.570;1.448;2023-06-19T07:39:53;10.18;;;7.85;;
14847;SDS011;7516;43.570;1.448;2023-06-19T07:42:22;8.60;;;7.47;;
14847;SDS011;7516;43.570;1.448;2023-06-19T07:44:50;9.38;;;7.15;;
14847;SDS011;7516;43.570;1.448;2023-06-19T07:47:17;9.02;;;7.40;;
14847;SDS011;7516;43.570;1.448;2023-06-19T07:49:45;10.00;;;7.78;;
14847;SDS011;7516;43.570;1.448;2023-06-19T07:52:13;8.63;;;7.68;;
14847;SDS011;7516;43.570;1.448;2023-06-19T07:54:52;12.25;;;8.80;;
14847;SDS011;7516;43.570;1.448;2023-06-19T07:57:20;9.32;;;8.25;;
14847;SDS011;7516;43.570;1.448;2023-06-19T07:59:49;9.20;;;8.23;;
14847;SDS011;7516;43.570;1.448;2023-06-19T08:02:17;11.38;;;8.10;;
14847;SDS011;7516;43.570;1.448;2023-06-19T08:04:44;12.02;;;8.85;;
14847;SDS011;7516;43.570;1.448;2023-06-19T08:07:12;11.18;;;8.25;;
14847;SDS011;7516;43.570;1.448;2023-06-19T08:09:39;13.43;;;8.50;;
14847;SDS011;7516;43.570;1.448;2023-06-19T08:12:06;10.70;;;9.05;;
14847;SDS011;7516;43.570;1.448;2023-06-19T08:14:34;15.88;;;10.00;;
14847;SDS011;7516;43.570;1.448;2023-06-19T08:17:05;11.43;;;9.07;;
14847;SDS011;7516;43.570;1.448;2023-06-19T08:19:32;11.05;;;9.65;;
14847;SDS011;7516;43.570;1.448;2023-06-19T08:21:59;11.38;;;8.90;;
14847;SDS011;7516;43.570;1.448;2023-06-19T08:24:27;13.82;;;9.20;;
14847;SDS011;7516;43.570;1.448;2023-06-19T08:26:55;12.13;;;8.82;;
14847;SDS011;7516;43.570;1.448;2023-06-19T08:29:22;12.63;;;9.05;;
14847;SDS011;7516;43.570;1.448;2023-06-19T08:31:49;10.20;;;8.73;;
14847;SDS011;7516;43.570;1.448;2023-06-19T08:34:18;13.90;;;9.60;;
14847;SDS011;7516;43.570;1.448;2023-06-19T08:36:45;10.82;;;8.73;;
14847;SDS011;7516;43.570;1.448;2023-06-19T08:39:12;13.10;;;9.05;;
14847;SDS011;7516;43.570;1.448;2023-06-19T08:41:40;11.52;;;8.48;;
14847;SDS011;7516;43.570;1.448;2023-06-19T08:44:07;12.25;;;8.98;;
14847;SDS011;7516;43.570;1.448;2023-06-19T08:46:35;11.50;;;7.82;;
14847;SDS011;7516;43.570;1.448;2023-06-19T08:49:03;9.45;;;8.32;;
14847;SDS011;7516;43.570;1.448;2023-06-19T08:51:32;10.35;;;8.13;;
14847;SDS011;7516;43.570;1.448;2023-06-19T08:54:00;10.55;;;7.70;;
14847;SDS011;7516;43.570;1.448;2023-06-19T08:56:28;8.90;;;7.75;;
14847;SDS011;7516;43.570;1.448;2023-06-19T08:59:07;11.05;;;7.20;;
14847;SDS011;7516;43.570;1.448;2023-06-19T09:01:34;11.57;;;8.68;;
14847;SDS011;7516;43.570;1.448;2023-06-19T09:04:07;12.32;;;8.48;;
14847;SDS011;7516;43.570;1.448;2023-06-19T09:06:36;10.00;;;8.07;;
14847;SDS011;7516;43.570;1.448;2023-06-19T09:09:04;11.77;;;7.88;;
14847;SDS011;7516;43.570;1.448;2023-06-19T09:11:36;9.80;;;8.18;;
14847;SDS011;7516;43.570;1.448;2023-06-19T09:14:08;10.00;;;8.10;;
14847;SDS011;7516;43.570;1.448;2023-06-19T09:16:36;11.15;;;7.95;;
14847;SDS011;7516;43.570;1.448;2023-06-19T09:19:04;10.20;;;8.00;;
14847;SDS011;7516;43.570;1.448;2023-06-19T09:21:31;12.63;;;8.48;;
14847;SDS011;7516;43.570;1.448;2023-06-19T09:24:03;13.25;;;9.10;;
14847;SDS011;7516;43.570;1.448;2023-06-19T09:26:31;12.80;;;8.63;;
14847;SDS011;7516;43.570;1.448;2023-06-19T09:28:58;10.57;;;8.63;;
14847;SDS011;7516;43.570;1.448;2023-06-19T09:31:36;13.32;;;8.18;;
14847;SDS011;7516;43.570;1.448;2023-06-19T09:34:04;10.07;;;8.57;;
14847;SDS011;7516;43.570;1.448;2023-06-19T09:36:32;10.93;;;8.38;;
14847;SDS011;7516;43.570;1.448;2023-06-19T09:39:00;10.63;;;8.55;;
14847;SDS011;7516;43.570;1.448;2023-06-19T09:41:30;11.82;;;8.40;;
14847;SDS011;7516;43.570;1.448;2023-06-19T09:43:58;9.02;;;7.88;;
14847;SDS011;7516;43.570;1.448;2023-06-19T09:46:26;8.55;;;7.65;;
14847;SDS011;7516;43.570;1.448;2023-06-19T09:48:54;8.63;;;7.72;;
14847;SDS011;7516;43.570;1.448;2023-06-19T09:51:25;9.98;;;8.07;;
14847;SDS011;7516;43.570;1.448;2023-06-19T09:53:55;10.57;;;8.27;;
14847;SDS011;7516;43.570;1.448;2023-06-19T09:56:26;11.43;;;8.20;;
14847;SDS011;7516;43.570;1.448;2023-06-19T09:58:56;10.10;;;8.43;;
14847;SDS011;7516;43.570;1.448;2023-06-19T10:01:25;10.30;;;7.72;;
14847;SDS011;7516;43.570;1.448;2023-06-19T10:04:01;9.77;;;8.10;;
14847;SDS011;7516;43.570;1.448;2023-06-19T10:06:29;11.00;;;8.23;;
14847;SDS011;7516;43.570;1.448;2023-06-19T10:09:05;13.43;;;8.55;;
14847;SDS011;7516;43.570;1.448;2023-06-19T10:11:43;9.43;;;8.48;;
14847;SDS011;7516;43.570;1.448;2023-06-19T10:14:12;8.98;;;8.05;;
14847;SDS011;7516;43.570;1.448;2023-06-19T10:16:43;9.10;;;8.20;;
14847;SDS011;7516;43.570;1.448;2023-06-19T10:19:14;10.20;;;7.95;;
14847;SDS011;7516;43.570;1.448;2023-06-19T10:21:45;9.02;;;7.95;;
14847;SDS011;7516;43.570;1.448;2023-06-19T10:24:16;8.93;;;8.00;;
14847;SDS011;7516;43.570;1.448;2023-06-19T10:26:55;9.63;;;8.02;;
14847;SDS011;7516;43.570;1.448;2023-06-19T10:29:23;9.63;;;7.82;;
14847;SDS011;7516;43.570;1.448;2023-06-19T10:31:52;9.07;;;8.15;;
14847;SDS011;7516;43.570;1.448;2023-06-19T10:34:22;8.63;;;7.72;;
14847;SDS011;7516;43.570;1.448;2023-06-19T10:36:49;9.85;;;7.97;;
14847;SDS011;7516;43.570;1.448;2023-06-19T10:39:17;8.35;;;7.28;;
14847;SDS011;7516;43.570;1.448;2023-06-19T10:41:44;10.02;;;7.60;;
14847;SDS011;7516;43.570;1.448;2023-06-19T10:44:12;8.23;;;7.40;;
14847;SDS011;7516;43.570;1.448;2023-06-19T10:46:41;9.85;;;7.85;;
14847;SDS011;7516;43.570;1.448;2023-06-19T10:49:08;11.15;;;7.80;;
14847;SDS011;7516;43.570;1.448;2023-06-19T10:51:39;8.68;;;7.30;;
14847;SDS011;7516;43.570;1.448;2023-06-19T10:54:06;10.05;;;7.32;;
14847;SDS011;7516;43.570;1.448;2023-06-19T10:56:34;8.52;;;7.07;;
14847;SDS011;7516;43.570;1.448;2023-06-19T10:59:02;9.07;;;7.32;;
14847;SDS011;7516;43.570;1.448;2023-06-19T11:01:34;7.72;;;6.95;;
14847;SDS011;7516;43.570;1.448;2023-06-19T11:04:04;7.72;;;6.95;;
14847;SDS011;7516;43.570;1.448;2023-06-19T11:06:32;7.30;;;6.65;;
14847;SDS011;7516;43.570;1.448;2023-06-19T11:08:59;8.25;;;7.40;;
14847;SDS011;7516;43.570;1.448;2023-06-19T11:11:35;8.07;;;7.20;;
14847;SDS011;7516;43.570;1.448;2023-06-19T11:14:03;10.00;;;6.65;;
14847;SDS011;7516;43.570;1.448;2023-06-19T11:16:30;7.70;;;6.80;;
14847;SDS011;7516;43.570;1.448;2023-06-19T11:18:58;8.02;;;7.20;;
14847;SDS011;7516;43.570;1.448;2023-06-19T11:21:31;8.70;;;7.13;;
14847;SDS011;7516;43.570;1.448;2023-06-19T11:24:03;8.10;;;7.32;;
14847;SDS011;7516;43.570;1.448;2023-06-19T11:26:33;11.13;;;6.82;;
14847;SDS011;7516;43.570;1.448;2023-06-19T11:29:00;9.52;;;7.15;;
14847;SDS011;7516;43.570;1.448;2023-06-19T11:31:28;7.78;;;6.88;;
14847;SDS011;7516;43.570;1.448;2023-06-19T11:33:57;8.80;;;6.85;;
14847;SDS011;7516;43.570;1.448;2023-06-19T11:36:24;7.60;;;6.88;;
14847;SDS011;7516;43.570;1.448;2023-06-19T11:38:53;9.00;;;6.78;;
14847;SDS011;7516;43.570;1.448;2023-06-19T11:41:26;9.23;;;7.13;;
14847;SDS011;7516;43.570;1.448;2023-06-19T11:44:02;8.05;;;6.55;;
14847;SDS011;7516;43.570;1.448;2023-06-19T11:46:30;7.28;;;6.57;;
14847;SDS011;7516;43.570;1.448;2023-06-19T11:49:06;8.88;;;6.68;;
14847;SDS011;7516;43.570;1.448;2023-06-19T11:51:34;7.60;;;6.82;;
14847;SDS011;7516;43.570;1.448;2023-06-19T11:54:03;8.00;;;6.90;;
14847;SDS011;7516;43.570;1.448;2023-06-19T11:56:31;9.13;;;6.50;;
14847;SDS011;7516;43.570;1.448;2023-06-19T11:58:59;7.85;;;7.05;;
14847;SDS011;7516;43.570;1.448;2023-06-19T12:01:26;7.40;;;6.70;;
14847;SDS011;7516;43.570;1.448;2023-06-19T12:03:53;9.18;;;7.07;;
14847;SDS011;7516;43.570;1.448;2023-06-19T12:06:20;8.95;;;6.53;;
14847;SDS011;7516;43.570;1.448;2023-06-19T12:08:48;8.20;;;7.07;;
14847;SDS011;7516;43.570;1.448;2023-06-19T12:11:16;9.43;;;6.95;;
14847;SDS011;7516;43.570;1.448;2023-06-19T12:13:44;8.75;;;7.18;;
14847;SDS011;7516;43.570;1.448;2023-06-19T12:16:11;9.68;;;7.10;;
14847;SDS011;7516;43.570;1.448;2023-06-19T12:18:39;10.52;;;7.00;;
14847;SDS011;7516;43.570;1.448;2023-06-19T12:21:06;7.45;;;6.68;;
14847;SDS011;7516;43.570;1.448;2023-06-19T12:23:33;9.50;;;7.30;;
14847;SDS011;7516;43.570;1.448;2023-06-19T12:26:01;8.15;;;7.30;;
14847;SDS011;7516;43.570;1.448;2023-06-19T12:28:29;9.38;;;7.30;;
14847;SDS011;7516;43.570;1.448;2023-06-19T12:30:56;10.50;;;7.57;;
14847;SDS011;7516;43.570;1.448;2023-06-19T12:33:24;9.35;;;7.03;;
14847;SDS011;7516;43.570;1.448;2023-06-19T12:35:58;8.60;;;7.22;;
14847;SDS011;7516;43.570;1.448;2023-06-19T12:38:25;8.10;;;7.22;;
14847;SDS011;7516;43.570;1.448;2023-06-19T12:40:53;8.45;;;7.10;;
14847;SDS011;7516;43.570;1.448;2023-06-19T12:43:20;8.20;;;7.07;;
14847;SDS011;7516;43.570;1.448;2023-06-19T12:45:48;7.53;;;6.82;;
14847;SDS011;7516;43.570;1.448;2023-06-19T12:48:16;7.63;;;6.80;;
14847;SDS011;7516;43.570;1.448;2023-06-19T12:50:43;7.30;;;6.60;;
14847;SDS011;7516;43.570;1.448;2023-06-19T12:53:10;9.10;;;6.60;;
14847;SDS011;7516;43.570;1.448;2023-06-19T12:55:38;9.32;;;7.47;;
14847;SDS011;7516;43.570;1.448;2023-06-19T12:58:05;9.20;;;6.88;;
14847;SDS011;7516;43.570;1.448;2023-06-19T13:00:32;10.50;;;6.80;;
14847;SDS011;7516;43.570;1.448;2023-06-19T13:03:01;9.73;;;6.45;;
14847;SDS011;7516;43.570;1.448;2023-06-19T13:05:30;9.18;;;6.60;;
14847;SDS011;7516;43.570;1.448;2023-06-19T13:07:57;7.13;;;6.40;;
14847;SDS011;7516;43.570;1.448;2023-06-19T13:10:24;7.80;;;6.20;;
14847;SDS011;7516;43.570;1.448;2023-06-19T13:12:52;8.48;;;6.43;;
14847;SDS011;7516;43.570;1.448;2023-06-19T13:15:19;6.60;;;5.88;;
14847;SDS011;7516;43.570;1.448;2023-06-19T13:17:46;6.85;;;6.15;;
14847;SDS011;7516;43.570;1.448;2023-06-19T13:20:15;7.50;;;6.10;;
14847;SDS011;7516;43.570;1.448;2023-06-19T13:22:42;6.82;;;5.78;;
14847;SDS011;7516;43.570;1.448;2023-06-19T13:25:09;6.80;;;6.00;;
14847;SDS011;7516;43.570;1.448;2023-06-19T13:27:36;6.28;;;5.68;;
14847;SDS011;7516;43.570;1.448;2023-06-19T13:30:04;7.25;;;6.05;;
14847;SDS011;7516;43.570;1.448;2023-06-19T13:32:33;6.68;;;5.97;;
14847;SDS011;7516;43.570;1.448;2023-06-19T13:35:00;7.35;;;5.68;;
14847;SDS011;7516;43.570;1.448;2023-06-19T13:37:29;8.20;;;5.93;;
14847;SDS011;7516;43.570;1.448;2023-06-19T13:39:56;6.28;;;5.68;;
14847;SDS011;7516;43.570;1.448;2023-06-19T13:42:25;6.22;;;5.63;;
14847;SDS011;7516;43.570;1.448;2023-06-19T13:44:52;6.40;;;5.70;;
14847;SDS011;7516;43.570;1.448;2023-06-19T13:47:19;7.60;;;5.50;;
14847;SDS011;7516;43.570;1.448;2023-06-19T13:49:46;6.32;;;5.70;;
14847;SDS011;7516;43.570;1.448;2023-06-19T13:52:13;6.75;;;5.93;;
14847;SDS011;7516;43.570;1.448;2023-06-19T13:54:42;6.30;;;5.70;;
14847;SDS011;7516;43.570;1.448;2023-06-19T13:57:09;5.97;;;5.47;;
14847;SDS011;7516;43.570;1.448;2023-06-19T13:59:37;6.78;;;5.65;;
14847;SDS011;7516;43.570;1.448;2023-06-19T14:02:04;6.57;;;5.82;;
14847;SDS011;7516;43.570;1.448;2023-06-19T14:04:32;6.47;;;5.50;;
14847;SDS011;7516;43.570;1.448;2023-06-19T14:06:59;6.85;;;6.15;;
14847;SDS011;7516;43.570;1.448;2023-06-19T14:09:26;6.47;;;5.65;;
14847;SDS011;7516;43.570;1.448;2023-06-19T14:11:55;6.95;;;5.60;;
14847;SDS011;7516;43.570;1.448;2023-06-19T14:14:22;6.53;;;5.93;;
14847;SDS011;7516;43.570;1.448;2023-06-19T14:16:49;7.55;;;5.85;;
14847;SDS011;7516;43.570;1.448;2023-06-19T14:19:16;7.68;;;5.57;;
14847;SDS011;7516;43.570;1.448;2023-06-19T14:21:44;6.57;;;5.47;;
14847;SDS011;7516;43.570;1.448;2023-06-19T14:24:11;7.20;;;6.20;;
14847;SDS011;7516;43.570;1.448;2023-06-19T14:26:39;7.78;;;6.45;;
14847;SDS011;7516;43.570;1.448;2023-06-19T14:29:07;6.53;;;5.82;;
14847;SDS011;7516;43.570;1.448;2023-06-19T14:31:34;6.30;;;5.70;;
14847;SDS011;7516;43.570;1.448;2023-06-19T14:34:02;6.50;;;5.72;;
14847;SDS011;7516;43.570;1.448;2023-06-19T14:36:29;7.22;;;5.95;;
14847;SDS011;7516;43.570;1.448;2023-06-19T14:38:56;7.10;;;5.65;;
14847;SDS011;7516;43.570;1.448;2023-06-19T14:41:23;7.15;;;6.22;;
14847;SDS011;7516;43.570;1.448;2023-06-19T14:43:51;7.97;;;6.35;;
14847;SDS011;7516;43.570;1.448;2023-06-19T14:46:19;8.23;;;6.20;;
14847;SDS011;7516;43.570;1.448;2023-06-19T14:48:47;7.22;;;5.70;;
14847;SDS011;7516;43.570;1.448;2023-06-19T14:51:14;8.57;;;6.13;;
14847;SDS011;7516;43.570;1.448;2023-06-19T14:53:41;6.28;;;5.68;;
14847;SDS011;7516;43.570;1.448;2023-06-19T14:56:08;8.82;;;5.80;;
14847;SDS011;7516;43.570;1.448;2023-06-19T14:58:36;7.18;;;5.75;;
14847;SDS011;7516;43.570;1.448;2023-06-19T15:01:03;7.65;;;5.32;;
14847;SDS011;7516;43.570;1.448;2023-06-19T15:03:32;6.25;;;5.65;;